Time;durP1;ratioP1;P1;durP2;ratioP2;P2;SDS_P1;SDS_P2;PMS_P1;PMS_P2;Temp;Humidity;BMP_temperature;BMP_pressure;BME280_temperature;BME280_humidity;BME280_pressure;Samples;Min_cycle;Max_cycle;Signal;HPM_P1;HPM_P2
2023/04/19 00:01:40;;;;;;;18.10;13.43;;;10.30;35.90;;;;;;5086510;27;20959;-72
2023/04/19 00:04:08;;;;;;;17.00;13.27;;;10.30;35.80;;;;;;5081971;28;20473;-71
2023/04/19 00:06:36;;;;;;;17.70;14.10;;;10.30;35.70;;;;;;5088603;28;20935;-71
2023/04/19 00:09:03;;;;;;;21.43;13.07;;;10.30;35.70;;;;;;5088687;28;20606;-71
2023/04/19 00:11:30;;;;;;;15.40;12.27;;;10.30;35.90;;;;;;5073764;28;20488;-71
2023/04/19 00:13:57;;;;;;;17.33;12.87;;;10.30;35.80;;;;;;5087934;28;20483;-71
2023/04/19 00:16:23;;;;;;;17.93;12.73;;;10.30;35.80;;;;;;5089724;28;20467;-71
2023/04/19 00:18:50;;;;;;;16.60;12.73;;;10.30;35.90;;;;;;5090497;28;20466;-72
2023/04/19 00:21:18;;;;;;;19.40;12.80;;;10.30;35.80;;;;;;5085859;28;20559;-72
2023/04/19 00:23:45;;;;;;;21.07;14.03;;;10.30;35.90;;;;;;5089337;28;20464;-71
2023/04/19 00:26:14;;;;;;;19.43;14.23;;;10.30;35.70;;;;;;5089526;28;21020;-72
2023/04/19 00:28:41;;;;;;;16.87;13.17;;;10.30;35.90;;;;;;5095371;28;20469;-71
2023/04/19 00:31:07;;;;;;;17.43;12.03;;;10.30;35.80;;;;;;5078735;27;20484;-72
2023/04/19 00:33:34;;;;;;;18.33;13.50;;;10.30;35.80;;;;;;5089555;28;20463;-72
2023/04/19 00:36:01;;;;;;;16.33;12.60;;;10.30;35.70;;;;;;5057002;28;20474;-71
2023/04/19 00:38:29;;;;;;;16.30;12.87;;;10.30;35.90;;;;;;5068347;28;20508;-72
2023/04/19 00:40:56;;;;;;;19.53;13.83;;;10.30;35.90;;;;;;5054799;28;20470;-71
2023/04/19 00:43:23;;;;;;;17.83;12.83;;;10.30;35.80;;;;;;5059293;28;20881;-71
2023/04/19 00:45:49;;;;;;;18.57;13.93;;;10.30;36.00;;;;;;5054479;28;20473;-71
2023/04/19 00:48:17;;;;;;;18.33;12.93;;;10.20;36.10;;;;;;5064509;28;20527;-71
2023/04/19 00:50:45;;;;;;;19.30;13.17;;;10.30;36.10;;;;;;5064464;28;20488;-71
2023/04/19 00:53:12;;;;;;;19.80;13.60;;;10.30;36.20;;;;;;5060499;28;20469;-71
2023/04/19 00:55:40;;;;;;;17.83;13.70;;;10.30;36.20;;;;;;5056166;28;20465;-71
2023/04/19 00:58:08;;;;;;;17.60;13.37;;;10.30;36.20;;;;;;5055880;28;20458;-70
2023/04/19 01:00:35;;;;;;;22.93;15.10;;;10.20;36.10;;;;;;5059370;28;20509;-71
2023/04/19 01:03:02;;;;;;;16.00;12.63;;;10.20;36.30;;;;;;5047741;28;20481;-71
2023/04/19 01:05:29;;;;;;;19.70;14.10;;;10.20;36.30;;;;;;5060242;28;20893;-71
2023/04/19 01:07:56;;;;;;;20.10;14.30;;;10.20;36.20;;;;;;5060548;28;20473;-71
2023/04/19 01:10:23;;;;;;;18.57;13.80;;;10.20;36.40;;;;;;5064831;28;20485;-72
2023/04/19 01:12:51;;;;;;;17.30;13.27;;;10.20;36.40;;;;;;5060317;28;20461;-71
2023/04/19 01:15:18;;;;;;;20.70;15.30;;;10.20;36.30;;;;;;5057587;28;20477;-71
2023/04/19 01:17:44;;;;;;;24.43;16.40;;;10.20;36.40;;;;;;5061172;28;20969;-71
2023/04/19 01:20:12;;;;;;;22.70;14.27;;;10.20;36.30;;;;;;5058952;28;20497;-72
2023/04/19 01:22:40;;;;;;;19.37;14.70;;;10.20;36.40;;;;;;5062209;28;20548;-71
2023/04/19 01:25:08;;;;;;;21.93;15.37;;;10.20;36.30;;;;;;5054675;28;20501;-72
2023/04/19 01:27:35;;;;;;;19.10;14.40;;;10.20;36.30;;;;;;5060058;28;20520;-71
2023/04/19 01:30:02;;;;;;;21.10;15.67;;;10.20;36.40;;;;;;5054516;28;20481;-72
2023/04/19 01:32:28;;;;;;;19.87;14.60;;;10.20;36.40;;;;;;5054375;28;20474;-71
2023/04/19 01:34:55;;;;;;;18.23;13.70;;;10.20;36.30;;;;;;5070489;28;20460;-71
2023/04/19 01:37:22;;;;;;;19.47;15.10;;;10.20;36.30;;;;;;5092235;28;20460;-71
2023/04/19 01:39:50;;;;;;;23.10;15.23;;;10.20;36.40;;;;;;5110947;28;20452;-71
2023/04/19 01:42:16;;;;;;;20.03;14.93;;;10.20;36.40;;;;;;5104621;28;21292;-71
2023/04/19 01:44:43;;;;;;;18.90;14.77;;;10.20;36.40;;;;;;5080992;28;21143;-71
2023/04/19 01:47:10;;;;;;;19.87;14.73;;;10.20;36.50;;;;;;5085700;28;20467;-70
2023/04/19 01:49:37;;;;;;;20.43;14.67;;;10.20;36.40;;;;;;5084514;28;20483;-71
2023/04/19 01:52:04;;;;;;;24.07;16.40;;;10.20;36.50;;;;;;5084364;28;20533;-71
2023/04/19 01:54:31;;;;;;;20.23;15.67;;;10.20;36.50;;;;;;5075570;28;20469;-71
2023/04/19 01:56:59;;;;;;;21.87;15.03;;;10.20;36.50;;;;;;5084604;28;20492;-71
2023/04/19 01:59:25;;;;;;;21.93;16.60;;;10.20;36.30;;;;;;5083855;28;20455;-71
2023/04/19 02:01:52;;;;;;;20.83;14.93;;;10.20;36.40;;;;;;5086554;28;20480;-71
2023/04/19 02:04:20;;;;;;;20.87;15.80;;;10.20;36.50;;;;;;5081179;28;20957;-70
2023/04/19 02:06:47;;;;;;;19.27;15.37;;;10.10;36.60;;;;;;5083115;28;20547;-71
2023/04/19 02:09:14;;;;;;;21.03;16.27;;;10.10;36.60;;;;;;5087745;28;21118;-70
2023/04/19 02:11:40;;;;;;;22.93;15.90;;;10.10;36.80;;;;;;5084715;28;20492;-69
2023/04/19 02:14:08;;;;;;;21.10;15.57;;;10.10;36.90;;;;;;5088126;28;20471;-71
2023/04/19 02:16:35;;;;;;;21.43;16.90;;;10.00;36.70;;;;;;5089191;28;20463;-70
2023/04/19 02:19:02;;;;;;;22.63;16.47;;;10.10;37.00;;;;;;5085997;28;20463;-70
2023/04/19 02:21:28;;;;;;;23.37;17.37;;;10.10;37.00;;;;;;5083678;28;20468;-71
2023/04/19 02:23:55;;;;;;;20.70;16.80;;;10.00;37.00;;;;;;5079479;28;20468;-71
2023/04/19 02:26:23;;;;;;;23.83;17.67;;;10.00;37.80;;;;;;5081353;28;20460;-70
2023/04/19 02:28:51;;;;;;;24.17;18.30;;;10.10;37.10;;;;;;5082092;28;20462;-70
2023/04/19 02:31:19;;;;;;;24.40;17.73;;;10.00;37.10;;;;;;5085177;28;20480;-71
2023/04/19 02:33:46;;;;;;;24.30;18.97;;;10.00;37.20;;;;;;5079125;28;20877;-71
2023/04/19 02:36:13;;;;;;;25.37;18.10;;;10.00;37.30;;;;;;5078260;28;20459;-72
2023/04/19 02:38:40;;;;;;;23.43;18.17;;;10.00;37.30;;;;;;5066548;28;20495;-71
2023/04/19 02:41:07;;;;;;;25.83;18.53;;;10.00;37.40;;;;;;5085749;28;20479;-72
2023/04/19 02:43:34;;;;;;;22.40;17.23;;;10.00;37.30;;;;;;5082616;28;20456;-72
2023/04/19 02:46:01;;;;;;;25.30;18.90;;;10.00;37.30;;;;;;5085966;28;20464;-72
2023/04/19 02:48:29;;;;;;;26.10;19.60;;;10.00;37.20;;;;;;5087908;28;20561;-71
2023/04/19 02:50:56;;;;;;;24.80;18.67;;;10.00;37.20;;;;;;5084295;28;20486;-71
2023/04/19 02:53:23;;;;;;;24.17;18.53;;;9.90;37.40;;;;;;5082801;28;20996;-70
2023/04/19 02:55:49;;;;;;;25.77;20.00;;;9.90;37.40;;;;;;5079478;28;20976;-72
2023/04/19 02:58:16;;;;;;;25.40;18.83;;;9.90;37.40;;;;;;5084507;28;20457;-71
2023/04/19 03:00:43;;;;;;;28.07;19.33;;;9.90;37.50;;;;;;5082408;28;20488;-71
2023/04/19 03:03:10;;;;;;;26.73;19.80;;;9.90;37.40;;;;;;5083605;28;20887;-71
2023/04/19 03:05:38;;;;;;;27.07;19.43;;;9.90;37.50;;;;;;5086097;28;20476;-72
2023/04/19 03:08:05;;;;;;;24.97;18.50;;;9.90;37.60;;;;;;5083701;28;20460;-71
2023/04/19 03:10:31;;;;;;;26.30;19.50;;;9.90;37.40;;;;;;5079422;28;20506;-72
2023/04/19 03:12:58;;;;;;;25.33;18.50;;;9.90;37.30;;;;;;5081141;28;20473;-71
2023/04/19 03:15:25;;;;;;;25.37;19.20;;;9.90;37.30;;;;;;5076486;28;20460;-71
2023/04/19 03:17:51;;;;;;;29.00;20.77;;;9.90;37.30;;;;;;5083680;28;20497;-69
2023/04/19 03:20:19;;;;;;;26.67;19.87;;;9.80;37.30;;;;;;5081076;28;20463;-71
2023/04/19 03:22:48;;;;;;;27.80;20.23;;;9.80;37.40;;;;;;5086111;28;20460;-70
2023/04/19 03:25:14;;;;;;;25.67;19.57;;;9.80;37.50;;;;;;5083317;28;20465;-71
2023/04/19 03:27:44;;;;;;;34.10;21.37;;;9.80;37.40;;;;;;5086649;28;20470;-72
2023/04/19 03:30:12;;;;;;;27.10;20.70;;;9.70;37.60;;;;;;5086772;28;21190;-71
2023/04/19 03:32:38;;;;;;;28.50;21.27;;;9.80;37.70;;;;;;5089362;28;20471;-71
2023/04/19 03:35:06;;;;;;;28.80;19.60;;;9.70;37.70;;;;;;5087022;28;20460;-71
2023/04/19 03:37:33;;;;;;;30.17;19.20;;;9.70;37.70;;;;;;5088419;28;20470;-72
2023/04/19 03:40:01;;;;;;;27.70;20.23;;;9.70;37.70;;;;;;5091817;28;20456;-71
2023/04/19 03:42:28;;;;;;;25.40;18.60;;;9.70;37.80;;;;;;5089497;28;20472;-71
2023/04/19 03:44:54;;;;;;;25.00;19.97;;;9.70;37.70;;;;;;5083110;28;20468;-71
2023/04/19 03:47:21;;;;;;;26.40;20.50;;;9.80;37.80;;;;;;5081636;28;20476;-71
2023/04/19 03:49:48;;;;;;;26.97;20.53;;;9.80;37.50;;;;;;5086979;28;20456;-71
2023/04/19 03:52:14;;;;;;;27.77;20.53;;;9.80;37.50;;;;;;5085487;28;20846;-71
2023/04/19 03:54:41;;;;;;;26.57;20.50;;;9.80;37.40;;;;;;5079518;28;20473;-72
2023/04/19 03:57:12;;;;;;;28.13;20.67;;;9.80;37.50;;;;;;5084658;28;20465;-71
2023/04/19 03:59:39;;;;;;;29.47;20.30;;;9.80;37.50;;;;;;5089912;28;20517;-71
2023/04/19 04:02:06;;;;;;;27.30;20.03;;;9.80;37.50;;;;;;5082152;28;20480;-71
2023/04/19 04:04:33;;;;;;;26.23;19.70;;;9.80;37.60;;;;;;5084733;28;20487;-73
2023/04/19 04:07:00;;;;;;;30.03;19.97;;;9.80;37.60;;;;;;5084228;28;20468;-74
2023/04/19 04:09:26;;;;;;;25.77;18.93;;;9.80;37.50;;;;;;5089432;28;20460;-74
2023/04/19 04:11:53;;;;;;;27.97;20.87;;;9.80;37.40;;;;;;5088633;28;20480;-74
2023/04/19 04:14:21;;;;;;;25.10;18.33;;;9.80;37.40;;;;;;5087604;28;20479;-71
2023/04/19 04:16:48;;;;;;;27.77;19.03;;;9.80;37.50;;;;;;5081586;28;20456;-71
2023/04/19 04:19:15;;;;;;;26.37;19.57;;;9.80;37.50;;;;;;5087211;22;20865;-70
2023/04/19 04:21:41;;;;;;;24.50;19.70;;;9.80;37.60;;;;;;5061848;28;20494;-70
2023/04/19 04:24:08;;;;;;;25.90;20.20;;;9.80;37.50;;;;;;5058682;28;20822;-69
2023/04/19 04:26:38;;;;;;;24.10;18.03;;;9.70;37.50;;;;;;5059895;28;20469;-69
2023/04/19 04:29:04;;;;;;;26.47;20.47;;;9.80;37.50;;;;;;5060683;28;20469;-69
2023/04/19 04:31:34;;;;;;;28.20;19.87;;;9.70;37.60;;;;;;5057792;28;20485;-68
2023/04/19 04:34:02;;;;;;;25.97;19.20;;;9.70;37.60;;;;;;5060794;28;20489;-68
2023/04/19 04:36:30;;;;;;;28.10;19.43;;;9.70;37.70;;;;;;5063560;28;20493;-69
2023/04/19 04:38:57;;;;;;;28.07;20.07;;;9.70;37.70;;;;;;5065439;28;20464;-68
2023/04/19 04:41:24;;;;;;;24.47;19.00;;;9.70;37.50;;;;;;5061259;28;20503;-70
2023/04/19 04:43:52;;;;;;;27.67;19.87;;;9.70;37.40;;;;;;5061302;28;20535;-67
2023/04/19 04:46:19;;;;;;;27.77;19.70;;;9.70;37.40;;;;;;5068273;28;20548;-66
2023/04/19 04:48:47;;;;;;;27.50;19.03;;;9.70;37.40;;;;;;5065755;28;20560;-66
2023/04/19 04:51:13;;;;;;;23.80;18.10;;;9.80;37.40;;;;;;5059926;28;20989;-65
2023/04/19 04:53:40;;;;;;;27.97;20.47;;;9.80;37.40;;;;;;5061069;28;20461;-67
2023/04/19 04:56:07;;;;;;;25.77;18.87;;;9.80;37.40;;;;;;5063114;28;20515;-67
2023/04/19 04:58:33;;;;;;;35.60;20.23;;;9.80;37.30;;;;;;5065085;28;20461;-68
2023/04/19 05:01:00;;;;;;;23.57;18.50;;;9.90;37.40;;;;;;5059784;28;20489;-66
2023/04/19 05:03:27;;;;;;;28.13;18.37;;;9.90;37.30;;;;;;5061207;28;20465;-66
2023/04/19 05:05:55;;;;;;;25.93;19.57;;;9.90;37.30;;;;;;5057692;28;20458;-67
2023/04/19 05:08:22;;;;;;;26.20;18.90;;;9.90;37.20;;;;;;5063693;28;20842;-67
2023/04/19 05:10:49;;;;;;;25.77;18.17;;;9.90;37.60;;;;;;5062467;28;20495;-67
2023/04/19 05:13:15;;;;;;;23.80;17.87;;;10.00;37.00;;;;;;5065598;28;20966;-67
2023/04/19 05:15:42;;;;;;;23.63;18.07;;;10.00;36.90;;;;;;5061699;28;20503;-67
2023/04/19 05:18:09;;;;;;;26.07;20.57;;;10.00;36.80;;;;;;5062115;28;20476;-66
2023/04/19 05:20:35;;;;;;;25.27;18.83;;;10.00;36.70;;;;;;5061319;28;20484;-66
2023/04/19 05:23:03;;;;;;;27.90;19.07;;;10.00;36.60;;;;;;5066255;28;20480;-66
2023/04/19 05:25:30;;;;;;;27.53;19.80;;;10.10;36.60;;;;;;5058534;28;20460;-66
2023/04/19 05:27:57;;;;;;;65.20;35.20;;;10.10;36.60;;;;;;5066199;28;20481;-67
2023/04/19 05:30:24;;;;;;;63.57;32.90;;;10.10;36.60;;;;;;5055423;28;20738;-66
2023/04/19 05:32:51;;;;;;;29.00;21.20;;;10.10;36.50;;;;;;5046993;28;20476;-65
2023/04/19 05:35:18;;;;;;;34.70;26.27;;;10.10;36.50;;;;;;5058826;28;20498;-66
2023/04/19 05:37:45;;;;;;;59.80;37.57;;;10.10;36.40;;;;;;5062499;28;20477;-67
2023/04/19 05:40:13;;;;;;;56.47;36.40;;;10.10;36.30;;;;;;5054100;28;20483;-67
2023/04/19 05:42:40;;;;;;;41.60;26.47;;;10.10;36.20;;;;;;5054962;28;20461;-67
2023/04/19 05:45:07;;;;;;;35.30;23.87;;;10.10;36.00;;;;;;5051590;28;20466;-66
2023/04/19 05:47:34;;;;;;;34.17;23.53;;;10.10;36.00;;;;;;5060523;28;20465;-66
2023/04/19 05:50:01;;;;;;;23.37;18.07;;;10.00;36.00;;;;;;5055257;28;20561;-66
2023/04/19 05:52:28;;;;;;;28.60;18.00;;;10.00;36.60;;;;;;5064257;28;20484;-66
2023/04/19 05:54:55;;;;;;;22.47;17.27;;;10.00;36.00;;;;;;5059912;28;20983;-66
2023/04/19 05:57:23;;;;;;;24.10;17.33;;;10.00;36.10;;;;;;5058720;28;20480;-67
2023/04/19 05:59:49;;;;;;;25.90;16.93;;;9.90;36.30;;;;;;5058471;28;20465;-66
2023/04/19 06:02:16;;;;;;;25.57;18.20;;;9.90;36.40;;;;;;5054803;28;21124;-68
2023/04/19 06:04:43;;;;;;;22.97;16.73;;;9.90;36.20;;;;;;5085514;23;20495;-67
2023/04/19 06:07:10;;;;;;;25.23;17.40;;;9.90;36.30;;;;;;5111567;27;20458;-65
2023/04/19 06:09:36;;;;;;;22.80;17.63;;;9.90;36.40;;;;;;5107431;27;20470;-66
2023/04/19 06:12:04;;;;;;;24.27;16.90;;;9.90;36.30;;;;;;5119267;27;20479;-66
2023/04/19 06:14:32;;;;;;;25.93;18.00;;;9.90;36.20;;;;;;5105181;27;20492;-67
2023/04/19 06:16:58;;;;;;;26.50;17.07;;;10.00;36.10;;;;;;5101865;28;20502;-67
2023/04/19 06:19:26;;;;;;;28.40;18.07;;;10.00;36.10;;;;;;5095567;28;20471;-67
2023/04/19 06:21:52;;;;;;;25.80;17.20;;;10.00;36.00;;;;;;5099697;28;20466;-67
2023/04/19 06:24:19;;;;;;;23.90;16.90;;;10.00;36.20;;;;;;5094153;28;20479;-68
2023/04/19 06:26:47;;;;;;;25.00;18.23;;;10.00;36.20;;;;;;5092700;28;20478;-67
2023/04/19 06:29:13;;;;;;;27.37;18.90;;;10.00;36.20;;;;;;5090691;28;20553;-67
2023/04/19 06:31:41;;;;;;;26.13;17.33;;;10.10;36.20;;;;;;5089995;28;20462;-66
2023/04/19 06:34:09;;;;;;;24.13;16.67;;;10.10;36.10;;;;;;5093396;28;20494;-66
2023/04/19 06:36:36;;;;;;;24.20;16.70;;;10.10;36.50;;;;;;5100772;28;20817;-68
2023/04/19 06:39:03;;;;;;;24.37;17.47;;;10.10;35.90;;;;;;5097458;28;20456;-66
2023/04/19 06:41:30;;;;;;;25.80;16.30;;;10.20;35.80;;;;;;5100916;28;20544;-66
2023/04/19 06:43:57;;;;;;;21.80;15.93;;;10.20;35.70;;;;;;5094245;28;20525;-66
2023/04/19 06:46:26;;;;;;;24.13;17.07;;;10.30;35.70;;;;;;5103107;28;20828;-67
2023/04/19 06:48:54;;;;;;;25.10;17.13;;;10.30;35.40;;;;;;5095309;28;20731;-67
2023/04/19 06:51:21;;;;;;;23.70;16.30;;;10.30;35.50;;;;;;5101803;28;20495;-66
2023/04/19 06:53:49;;;;;;;27.80;17.47;;;10.40;35.20;;;;;;5088862;28;20897;-66
2023/04/19 06:56:15;;;;;;;24.97;16.47;;;10.40;35.00;;;;;;5099229;28;20465;-67
2023/04/19 06:58:42;;;;;;;26.23;16.53;;;10.40;34.90;;;;;;5106755;27;20876;-67
2023/04/19 07:01:09;;;;;;;23.77;16.90;;;10.40;34.90;;;;;;5102495;27;20570;-67
2023/04/19 07:03:36;;;;;;;24.77;15.70;;;10.40;34.80;;;;;;5108401;27;20487;-67
2023/04/19 07:06:04;;;;;;;24.63;16.67;;;10.40;34.80;;;;;;5106775;27;20486;-67
2023/04/19 07:08:31;;;;;;;23.90;16.97;;;10.50;34.70;;;;;;5109251;27;20471;-67
2023/04/19 07:10:58;;;;;;;24.47;14.47;;;10.50;34.60;;;;;;5107144;27;20486;-68
2023/04/19 07:13:24;;;;;;;22.07;15.00;;;10.50;34.50;;;;;;5105274;27;20493;-66
2023/04/19 07:15:51;;;;;;;23.77;15.73;;;10.60;34.10;;;;;;5103745;27;20475;-67
2023/04/19 07:18:18;;;;;;;22.23;16.00;;;10.60;34.00;;;;;;5108391;27;20475;-67
2023/04/19 07:20:47;;;;;;;22.20;16.77;;;10.60;33.70;;;;;;5102902;27;20471;-67
2023/04/19 07:23:15;;;;;;;23.23;15.93;;;10.60;33.40;;;;;;5105661;27;20514;-67
2023/04/19 07:25:42;;;;;;;21.17;14.43;;;10.60;33.30;;;;;;5100592;27;20550;-67
2023/04/19 07:28:09;;;;;;;21.20;14.63;;;10.60;33.10;;;;;;5088360;28;20463;-67
2023/04/19 07:30:36;;;;;;;25.10;15.53;;;10.60;32.60;;;;;;5112118;27;20495;-68
2023/04/19 07:33:04;;;;;;;21.23;15.20;;;10.60;32.40;;;;;;5095296;27;20480;-68
2023/04/19 07:35:30;;;;;;;23.97;16.10;;;10.60;32.60;;;;;;5103884;27;20494;-69
2023/04/19 07:37:57;;;;;;;21.40;15.57;;;10.60;32.50;;;;;;5106669;27;20489;-67
2023/04/19 07:40:25;;;;;;;20.30;14.27;;;10.60;32.30;;;;;;5108909;27;20455;-67
2023/04/19 07:42:55;;;;;;;22.00;15.73;;;10.70;32.40;;;;;;5096518;27;20464;-69
2023/04/19 07:45:22;;;;;;;20.30;14.80;;;10.70;32.30;;;;;;5100955;27;20544;-69
2023/04/19 07:47:49;;;;;;;19.77;13.67;;;10.80;32.20;;;;;;5101357;28;20467;-69
2023/04/19 07:50:15;;;;;;;21.43;14.97;;;10.90;32.10;;;;;;5099465;27;23423;-69
2023/04/19 07:52:42;;;;;;;20.83;14.70;;;11.00;31.80;;;;;;5094645;27;20516;-67
2023/04/19 07:55:09;;;;;;;21.07;14.97;;;11.00;31.50;;;;;;5107917;27;20486;-67
2023/04/19 07:57:37;;;;;;;24.77;15.90;;;11.10;31.40;;;;;;5110824;27;20475;-67
2023/04/19 08:00:05;;;;;;;19.97;13.70;;;11.20;31.20;;;;;;5100328;27;20460;-67
2023/04/19 08:02:32;;;;;;;20.87;14.80;;;11.20;31.00;;;;;;5096107;27;20471;-68
2023/04/19 08:04:58;;;;;;;22.80;15.40;;;11.40;30.60;;;;;;5101067;27;20498;-68
2023/04/19 08:07:25;;;;;;;21.20;14.93;;;11.50;30.30;;;;;;5101794;27;21222;-68
2023/04/19 08:09:52;;;;;;;23.47;14.50;;;11.60;29.80;;;;;;5098763;27;20471;-69
2023/04/19 08:12:18;;;;;;;19.27;13.80;;;11.60;29.50;;;;;;5099040;27;20484;-69
2023/04/19 08:14:47;;;;;;;18.63;13.07;;;11.70;29.60;;;;;;5092104;28;21617;-68
2023/04/19 08:17:15;;;;;;;21.57;15.03;;;11.70;29.30;;;;;;5101323;28;20472;-69
2023/04/19 08:19:42;;;;;;;23.63;14.87;;;11.80;28.40;;;;;;5101824;27;20564;-69
2023/04/19 08:22:08;;;;;;;21.13;14.57;;;11.90;28.40;;;;;;5104304;28;20459;-69
2023/04/19 08:24:35;;;;;;;19.77;14.07;;;11.90;27.60;;;;;;5098708;27;20487;-69
2023/04/19 08:27:02;;;;;;;19.00;13.83;;;12.00;27.50;;;;;;5104590;28;20459;-69
2023/04/19 08:29:29;;;;;;;20.10;14.17;;;12.10;26.90;;;;;;5109828;27;20833;-69
2023/04/19 08:31:57;;;;;;;19.07;14.30;;;12.20;26.90;;;;;;5100975;27;20484;-68
2023/04/19 08:34:23;;;;;;;20.97;14.00;;;12.20;26.50;;;;;;5102136;27;20483;-68
2023/04/19 08:36:50;;;;;;;20.10;14.63;;;12.30;27.10;;;;;;5099438;27;20945;-69
2023/04/19 08:39:17;;;;;;;20.70;15.20;;;12.30;26.50;;;;;;5109247;27;20455;-68
2023/04/19 08:41:44;;;;;;;20.30;14.47;;;12.40;26.50;;;;;;5112680;27;20458;-69
2023/04/19 08:44:12;;;;;;;24.27;15.60;;;12.50;26.20;;;;;;5105254;27;20491;-69
2023/04/19 08:46:40;;;;;;;21.70;15.80;;;12.60;25.80;;;;;;5096259;27;20463;-68
2023/04/19 08:49:09;;;;;;;22.13;14.73;;;12.80;25.30;;;;;;5105550;27;20476;-68
2023/04/19 08:51:38;;;;;;;23.60;14.40;;;13.00;24.20;;;;;;5099408;28;20519;-68
2023/04/19 08:54:06;;;;;;;20.57;14.50;;;13.10;24.10;;;;;;5094767;28;20487;-69
2023/04/19 08:56:33;;;;;;;17.70;13.13;;;13.30;23.60;;;;;;5104584;27;21203;-68
2023/04/19 08:59:00;;;;;;;20.10;13.57;;;13.70;23.40;;;;;;5100484;28;20467;-68
2023/04/19 09:01:26;;;;;;;18.43;14.13;;;14.50;22.40;;;;;;5095338;28;20480;-67
2023/04/19 09:03:53;;;;;;;18.00;14.10;;;15.00;20.10;;;;;;5099680;28;20487;-68
2023/04/19 09:06:21;;;;;;;20.47;15.53;;;15.30;18.80;;;;;;5101754;27;20456;-69
2023/04/19 09:08:50;;;;;;;20.23;13.70;;;15.50;17.30;;;;;;5095103;28;20580;-68
2023/04/19 09:11:16;;;;;;;19.07;13.70;;;15.70;17.40;;;;;;5099875;28;21460;-69
2023/04/19 09:13:43;;;;;;;16.47;13.00;;;16.00;17.10;;;;;;5098328;27;20479;-68
2023/04/19 09:16:23;;;;;;;16.33;12.93;;;16.20;16.20;;;;;;5103680;28;20502;-68
2023/04/19 09:18:58;;;;;;;15.73;11.90;;;16.30;15.70;;;;;;5101950;27;20967;-68
2023/04/19 09:21:30;;;;;;;18.23;12.83;;;16.40;15.70;;;;;;5084176;28;20467;-69
2023/04/19 09:23:58;;;;;;;16.30;13.17;;;16.40;15.10;;;;;;5096492;28;20486;-69
2023/04/19 09:26:28;;;;;;;18.63;13.70;;;16.30;15.10;;;;;;5100907;28;20511;-68
2023/04/19 09:29:00;;;;;;;19.17;12.83;;;16.30;15.10;;;;;;5097504;28;20558;-66
2023/04/19 09:31:28;;;;;;;17.90;13.97;;;16.30;15.00;;;;;;5097667;27;20967;-66
2023/04/19 09:33:55;;;;;;;17.23;12.87;;;16.20;15.20;;;;;;5093912;28;20983;-68
2023/04/19 09:36:38;;;;;;;17.17;12.80;;;16.00;15.00;;;;;;5095199;28;20472;-68
2023/04/19 09:39:05;;;;;;;16.70;13.50;;;15.90;15.60;;;;;;5099315;28;20467;-67
2023/04/19 09:41:32;;;;;;;16.97;12.57;;;15.70;15.70;;;;;;5098285;28;20974;-68
2023/04/19 09:44:10;;;;;;;19.00;14.90;;;15.60;16.40;;;;;;5090703;28;20541;-67
2023/04/19 09:46:37;;;;;;;16.80;13.23;;;15.60;16.50;;;;;;5088036;28;20470;-68
2023/04/19 09:49:18;;;;;;;15.97;12.03;;;15.70;16.50;;;;;;5105484;27;20825;-68
2023/04/19 09:51:48;;;;;;;19.30;14.13;;;15.90;15.80;;;;;;5104103;27;20463;-66
2023/04/19 09:54:16;;;;;;;19.80;13.97;;;15.90;16.00;;;;;;5096389;27;20491;-68
2023/04/19 09:56:43;;;;;;;18.37;13.60;;;15.90;15.80;;;;;;5095489;28;20462;-68
2023/04/19 09:59:11;;;;;;;19.87;13.90;;;16.10;15.40;;;;;;5095378;28;20455;-68
2023/04/19 10:01:40;;;;;;;16.57;13.07;;;16.10;15.50;;;;;;5085557;28;20621;-68
2023/04/19 10:04:09;;;;;;;15.83;12.23;;;16.00;15.50;;;;;;5088825;28;20522;-67
2023/04/19 10:06:37;;;;;;;18.20;12.73;;;16.10;15.50;;;;;;5082649;28;20542;-67
2023/04/19 10:09:06;;;;;;;15.37;11.03;;;17.10;15.40;;;;;;5092837;28;20463;-65
2023/04/19 10:11:37;;;;;;;18.23;13.03;;;18.20;12.10;;;;;;5103027;28;20955;-67
2023/04/19 10:14:06;;;;;;;15.90;12.13;;;18.20;11.60;;;;;;5100415;28;20486;-66
2023/04/19 10:16:33;;;;;;;17.10;12.00;;;18.00;12.00;;;;;;5089621;28;20885;-67
2023/04/19 10:19:01;;;;;;;15.60;12.57;;;17.90;12.30;;;;;;5092417;28;20959;-67
2023/04/19 10:21:29;;;;;;;16.43;12.60;;;17.80;12.40;;;;;;5102663;28;20460;-67
2023/04/19 10:23:58;;;;;;;16.80;12.50;;;17.60;12.00;;;;;;5095148;28;21198;-66
2023/04/19 10:26:26;;;;;;;18.40;13.17;;;17.40;12.30;;;;;;5097780;28;20478;-67
2023/04/19 10:28:56;;;;;;;17.90;13.03;;;17.30;12.40;;;;;;5088285;28;21035;-67
2023/04/19 10:31:25;;;;;;;16.47;12.87;;;17.10;12.90;;;;;;5104559;28;20979;-68
2023/04/19 10:33:52;;;;;;;16.10;12.23;;;16.90;13.30;;;;;;5098591;28;20483;-64
2023/04/19 10:36:20;;;;;;;17.70;13.40;;;16.60;13.60;;;;;;5097700;28;20457;-67
2023/04/19 10:38:48;;;;;;;19.67;13.00;;;16.50;13.60;;;;;;5103354;28;20467;-65
2023/04/19 10:41:15;;;;;;;19.20;13.03;;;16.30;13.90;;;;;;5094656;28;20462;-64
2023/04/19 10:43:47;;;;;;;17.30;13.20;;;16.10;14.30;;;;;;5101506;27;20506;-63
2023/04/19 10:46:16;;;;;;;16.70;13.20;;;16.00;14.70;;;;;;5101582;28;20467;-64
2023/04/19 10:48:54;;;;;;;17.53;12.60;;;15.90;15.10;;;;;;5103624;27;20981;-64
2023/04/19 10:51:22;;;;;;;16.23;12.33;;;15.90;15.20;;;;;;5102057;28;20462;-65
2023/04/19 10:53:54;;;;;;;19.97;14.17;;;15.80;15.30;;;;;;5104720;28;20483;-65
2023/04/19 10:56:40;;;;;;;19.43;13.40;;;15.80;15.40;;;;;;5106297;28;20572;-64
2023/04/19 10:59:21;;;;;;;18.83;14.30;;;15.90;15.40;;;;;;5094245;28;20582;-64
2023/04/19 11:01:53;;;;;;;18.10;13.93;;;15.90;15.30;;;;;;5104068;27;20494;-64
2023/04/19 11:04:22;;;;;;;19.30;14.37;;;15.80;15.50;;;;;;5098032;27;20487;-68
2023/04/19 11:07:03;;;;;;;17.77;13.67;;;15.90;15.70;;;;;;5091847;28;20470;-66
2023/04/19 11:09:33;;;;;;;17.60;13.53;;;15.90;15.70;;;;;;5097027;27;20860;-66
2023/04/19 11:12:02;;;;;;;15.87;12.57;;;15.80;15.60;;;;;;5091763;28;20821;-66
2023/04/19 11:14:33;;;;;;;18.17;12.80;;;15.80;15.50;;;;;;5101110;27;20483;-67
2023/04/19 11:17:01;;;;;;;19.20;12.60;;;15.70;15.60;;;;;;5108018;27;20558;-66
2023/04/19 11:19:27;;;;;;;18.90;14.33;;;15.70;15.70;;;;;;5117619;27;20459;-66
2023/04/19 11:21:58;;;;;;;17.37;13.50;;;15.60;15.80;;;;;;5107207;27;20917;-67
2023/04/19 11:24:25;;;;;;;17.93;13.60;;;15.60;15.90;;;;;;5091444;27;20594;-65
2023/04/19 11:26:52;;;;;;;19.80;14.40;;;15.60;16.00;;;;;;5102654;27;20459;-65
2023/04/19 11:29:21;;;;;;;19.83;14.67;;;15.60;16.00;;;;;;5111226;27;20465;-67
2023/04/19 11:31:49;;;;;;;16.77;12.83;;;15.60;16.10;;;;;;5109250;27;20510;-67
2023/04/19 11:34:18;;;;;;;16.80;12.97;;;15.50;16.00;;;;;;5114881;27;20491;-67
2023/04/19 11:36:49;;;;;;;17.10;12.63;;;15.50;16.10;;;;;;5110751;27;20942;-68
2023/04/19 11:39:16;;;;;;;15.33;12.20;;;15.50;16.20;;;;;;5101048;27;20464;-67
2023/04/19 11:41:42;;;;;;;18.80;13.23;;;15.40;16.20;;;;;;5102389;27;21514;-67
2023/04/19 11:44:16;;;;;;;20.40;14.00;;;15.40;16.40;;;;;;5103029;27;20482;-66
2023/04/19 11:46:43;;;;;;;19.30;13.27;;;15.30;16.60;;;;;;5093318;27;20471;-64
2023/04/19 11:49:25;;;;;;;17.07;12.50;;;15.20;16.60;;;;;;5092954;27;21011;-64
2023/04/19 11:51:56;;;;;;;16.00;12.20;;;15.10;16.90;;;;;;5106012;27;20483;-65
2023/04/19 11:54:23;;;;;;;16.93;12.47;;;15.00;17.00;;;;;;5088353;28;20498;-65
2023/04/19 11:57:04;;;;;;;16.10;11.83;;;14.90;17.20;;;;;;5096512;28;20451;-64
2023/04/19 11:59:32;;;;;;;16.30;11.93;;;14.80;17.00;;;;;;5092139;28;20455;-63
2023/04/19 12:02:08;;;;;;;16.73;12.93;;;14.70;17.00;;;;;;5091508;28;20511;-65
2023/04/19 12:04:37;;;;;;;19.23;13.60;;;14.50;17.70;;;;;;5091485;28;21036;-64
2023/04/19 12:07:05;;;;;;;19.57;13.87;;;14.40;18.30;;;;;;5089058;28;21278;-65
2023/04/19 12:09:34;;;;;;;17.53;13.13;;;14.30;19.20;;;;;;5097713;27;20452;-65
2023/04/19 12:12:01;;;;;;;21.03;12.40;;;14.30;19.60;;;;;;5097535;28;20868;-64
2023/04/19 12:14:28;;;;;;;17.57;12.13;;;14.30;19.50;;;;;;5099207;28;20488;-65
2023/04/19 12:17:08;;;;;;;21.80;13.47;;;14.20;20.00;;;;;;5099041;28;20455;-64
2023/04/19 12:19:38;;;;;;;16.77;12.20;;;14.10;19.90;;;;;;5102480;28;20459;-65
2023/04/19 12:22:09;;;;;;;16.40;12.10;;;14.00;20.20;;;;;;5101973;28;20546;-65
2023/04/19 12:24:37;;;;;;;30.07;12.87;;;13.90;20.50;;;;;;5095874;28;20471;-65
2023/04/19 12:27:04;;;;;;;16.67;12.40;;;13.80;20.70;;;;;;5102616;27;20592;-65
2023/04/19 12:29:31;;;;;;;18.10;10.90;;;13.80;21.60;;;;;;5105391;28;20821;-64
2023/04/19 12:31:58;;;;;;;18.00;12.00;;;13.80;21.60;;;;;;5102959;28;20468;-64